Latest Weather Observations for Dwellingup

IDW60801

Issued at 2:04 pm WST Monday 23 January 2017 (issued every 30 minutes, with the page automatically refreshed every 10 minutes)

About weather observations | Map of weather stations | Latest weather observations for WA | Other Formats
Station Details ID: 009538 Name: DWELLINGUP Lat: -32.71 Lon: 116.06 Height: 267.0 m
Data from the previous 72 hours. | See also: Recent months at Dwellingup
Date/Time
WST
Temp
°C
App
Temp
°C
Dew
Point
°C
Rel
Hum
%
Delta-T
°C
Wind Press
QNH
hPa
Press
MSL
hPa
Rain since
9am
mm
Dir  Spd
km/h
Gust
km/h
Spd
kts
Gust
kts
23/02:00pm 23.3 20.7 7.8 37 8.2 SW 11 19 6 10 1016.4 1015.2 0.0
23/01:30pm 23.5 19.6 7.2 35 8.6 SW 17 30 9 16 1016.6 1015.4 0.0
23/01:00pm 22.9 20.1 7.1 36 8.3 WSW 11 19 6 10 1016.8 1015.7 0.0
23/12:30pm 21.4 18.0 6.1 37 7.8 WSW 13 26 7 14 1017.2 1016.1 0.0
23/12:00pm 22.0 18.9 7.4 39 7.6 SW 13 24 7 13 1017.2 1016.1 0.0
23/11:30am 21.2 18.1 7.4 41 7.2 SSW 13 24 7 13 1017.4 1016.3 0.0
23/11:00am 21.3 18.3 9.2 46 6.5 SSW 15 28 8 15 1017.4 1016.3 0.0
23/10:30am 19.7 16.6 8.7 49 5.8 SSW 15 26 8 14 1017.5 1016.4 0.0
23/10:00am 19.3 16.9 8.6 50 5.6 S 11 22 6 12 1017.6 1016.5 0.0
23/09:30am 18.2 16.4 9.5 57 4.6 WSW 9 17 5 9 1017.5 1016.4 0.0
23/09:00am 17.6 15.4 9.2 58 4.4 SE 11 19 6 10 1017.5 1016.4 0.0
23/08:30am 16.6 14.8 9.3 62 3.8 S 9 15 5 8 1017.5 1016.4 0.0
23/08:00am 16.0 14.2 9.4 65 3.5 S 9 17 5 9 1017.6 1016.5 0.0
23/07:30am 14.7 12.8 9.1 69 2.9 S 9 15 5 8 1017.3 1016.2 0.0
23/07:00am 12.2 10.2 8.5 78 1.9 SSE 9 13 5 7 1016.9 1015.8 0.0
23/06:30am 10.7 8.5 7.8 82 1.4 S 9 11 5 6 1016.6 1015.4 0.0
23/06:00am 9.7 6.9 7.1 84 1.2 SSW 11 15 6 8 1016.2 1015.0 0.0
23/05:30am 9.7 6.5 7.0 83 1.3 SSW 13 15 7 8 1015.9 1014.7 0.0
23/05:00am 10.0 6.9 7.3 83 1.3 S 13 17 7 9 1015.4 1014.3 0.0
23/04:30am 10.0 6.9 7.1 82 1.4 SSW 13 19 7 10 1015.1 1014.0 0.0
23/04:00am 10.4 6.9 7.3 81 1.5 SSW 15 17 8 9 1014.9 1013.8 0.0
23/03:30am 10.4 7.3 7.3 81 1.5 SSW 13 17 7 9 1014.7 1013.6 0.0
23/03:00am 10.4 7.3 7.1 80 1.6 S 13 15 7 8 1014.6 1013.5 0.0
23/02:30am 10.9 8.6 7.4 79 1.7 S 9 13 5 7 1014.7 1013.6 0.0
23/02:00am 11.6 9.4 7.7 77 1.9 SSE 9 11 5 6 1014.5 1013.4 0.0
23/01:30am 12.1 9.5 7.6 74 2.2 S 11 17 6 9 1014.7 1013.6 0.0
23/01:00am 12.8 9.8 7.9 72 2.4 S 13 17 7 9 1014.5 1013.4 0.0
23/12:30am 13.6 10.6 7.8 68 2.9 SSW 13 20 7 11 1014.5 1013.4 0.0
23/12:00am 14.1 11.1 7.6 65 3.2 S 13 20 7 11 1014.5 1013.4 0.0
 
Date/Time
WST
Temp
°C
App
Temp
°C
Dew
Point
°C
Rel
Hum
%
Delta-T
°C
Wind Press
QNH
hPa
Press
MSL
hPa
Rain since
9am
mm
Dir  Spd
km/h
Gust
km/h
Spd
kts
Gust
kts
22/11:30pm 14.4 11.0 7.7 64 3.4 SSW 15 22 8 12 1014.3 1013.2 0.0
22/11:00pm 14.9 11.9 7.9 63 3.5 SSW 13 19 7 10 1014.3 1013.2 0.0
22/10:30pm 15.2 12.7 8.4 64 3.5 SSW 11 15 6 8 1014.3 1013.2 0.0
22/10:00pm 15.5 12.4 8.7 64 3.5 SSW 15 24 8 13 1014.3 1013.2 0.0
22/09:30pm 15.8 12.7 9.0 64 3.5 SSW 15 26 8 14 1014.0 1012.9 0.0
22/09:00pm 16.0 13.0 9.4 65 3.5 SW 15 28 8 15 1013.7 1012.6 0.0
22/08:30pm 16.1 12.7 9.3 64 3.6 SW 17 28 9 15 1013.5 1012.4 0.0
22/08:00pm 16.6 11.5 9.3 62 3.8 SW 26 46 14 25 1013.2 1012.0 0.0
22/07:30pm 17.0 11.9 9.2 60 4.1 SW 26 50 14 27 1013.0 1011.8 0.0
22/07:02pm 17.8 12.2 8.9 56 4.7 SW 28 48 15 26 1012.7 1011.5 0.0
22/07:00pm 18.0 12.8 8.8 55 4.8 SW 26 48 14 26 1012.7 1011.5 0.0
22/06:30pm 18.9 13.8 9.1 53 5.2 SW 26 43 14 23 1012.1 1010.9 0.0
22/06:00pm 20.0 15.4 9.6 51 5.6 WSW 24 37 13 20 1011.4 1010.3 0.0
22/05:30pm 19.8 15.3 10.0 53 5.3 WSW 24 37 13 20 1011.2 1010.1 0.0
22/05:00pm 20.5 15.8 9.4 49 6.0 SW 24 46 13 25 1010.9 1009.8 0.0
22/04:30pm 21.8 18.1 10.0 47 6.5 SW 20 39 11 21 1010.6 1009.5 0.0
22/04:00pm 22.3 19.1 9.8 45 6.9 WSW 17 37 9 20 1010.7 1009.6 0.0
22/03:30pm 22.6 18.6 9.0 42 7.4 WSW 20 37 11 20 1010.6 1009.5 0.0
22/03:00pm 23.3 19.3 9.0 40 7.8 WSW 20 35 11 19 1010.7 1009.6 0.0
22/02:30pm 23.5 19.2 8.0 37 8.3 WSW 20 35 11 19 1010.9 1009.8 0.0
22/02:00pm 23.1 19.5 8.4 39 7.9 W 17 33 9 18 1010.8 1009.7 0.0
22/01:30pm 22.9 19.4 8.6 40 7.7 SW 17 30 9 16 1010.9 1009.8 0.0
22/01:00pm 22.6 18.9 9.4 43 7.2 SW 19 32 10 17 1010.9 1009.8 0.0
22/12:30pm 22.1 18.7 9.3 44 6.9 SW 17 30 9 16 1010.8 1009.7 0.0
22/12:00pm 22.6 19.2 10.4 46 6.8 SW 19 28 10 15 1011.0 1009.9 0.0
22/11:30am 22.6 19.0 10.7 47 6.6 SW 20 35 11 19 1011.0 1009.9 0.0
22/11:00am 21.9 19.1 10.1 47 6.5 SW 15 33 8 18 1011.1 1010.0 0.0
22/10:30am 21.5 18.5 10.6 50 6.0 SSW 17 28 9 15 1011.1 1010.0 0.0
22/10:00am 21.0 17.4 11.9 56 5.2 SSW 22 33 12 18 1011.0 1009.9 0.0
22/09:30am 20.4 17.1 11.6 57 4.9 SSW 20 32 11 17 1011.0 1009.9 0.0
22/09:00am 20.1 17.6 12.3 61 4.4 SSW 17 28 9 15 1010.9 1009.8 0.0
22/08:30am 18.5 16.4 12.3 67 3.5 S 15 26 8 14 1011.0 1009.9 0.0
22/08:00am 17.1 13.9 12.0 72 2.8 S 20 30 11 16 1011.0 1009.9 0.0
22/07:30am 16.6 13.0 11.7 73 2.7 SSW 22 37 12 20 1010.9 1009.8 0.0
22/07:00am 15.6 14.0 11.4 76 2.3 S 11 19 6 10 1010.8 1009.7 0.0
22/06:30am 14.7 11.8 11.1 79 1.9 S 17 26 9 14 1010.8 1009.7 0.0
22/06:00am 14.3 12.1 10.9 80 1.8 S 13 19 7 10 1010.4 1009.3 0.0
22/05:30am 14.4 12.3 11.0 80 1.8 S 13 17 7 9 1010.1 1009.0 0.0
22/05:00am 14.6 12.1 11.2 80 1.8 SSE 15 24 8 13 1009.8 1008.6 0.0
22/04:30am 14.7 11.9 11.3 80 1.8 S 17 24 9 13 1009.6 1008.4 0.0
22/04:00am 15.1 12.2 11.1 77 2.2 S 17 24 9 13 1009.3 1008.1 0.0
22/03:30am 15.4 13.3 11.0 75 2.4 S 13 20 7 11 1009.2 1008.0 0.0
22/03:00am 14.5 12.0 10.9 79 1.9 S 15 19 8 10 1009.0 1007.8 0.0
22/02:30am 14.1 11.3 10.1 77 2.1 S 15 19 8 10 1008.9 1007.7 0.0
22/02:00am 14.8 12.5 10.6 76 2.2 SSW 13 17 7 9 1008.7 1007.5 0.0
22/01:30am 15.2 13.4 10.8 75 2.4 S 11 15 6 8 1008.8 1007.6 0.0
22/01:00am 15.8 13.7 11.0 73 2.6 S 13 17 7 9 1008.8 1007.6 0.0
22/12:30am 16.4 14.3 11.3 72 2.8 S 13 17 7 9 1009.0 1007.8 0.0
22/12:00am 16.8 14.4 11.3 70 3.0 SSW 15 19 8 10 1009.2 1008.0 0.0
 
Date/Time
WST
Temp
°C
App
Temp
°C
Dew
Point
°C
Rel
Hum
%
Delta-T
°C
Wind Press
QNH
hPa
Press
MSL
hPa
Rain since
9am
mm
Dir  Spd
km/h
Gust
km/h
Spd
kts
Gust
kts
21/11:30pm 17.3 14.8 11.1 67 3.4 S 15 20 8 11 1009.3 1008.1 0.0
21/11:00pm 17.8 15.3 11.1 65 3.7 S 15 19 8 10 1009.4 1008.2 0.0
21/10:30pm 18.5 16.2 11.6 64 3.8 SSW 15 22 8 12 1009.4 1008.2 0.0
21/10:00pm 19.4 17.0 11.4 60 4.5 S 15 20 8 11 1009.4 1008.2 0.0
21/09:30pm 20.6 19.1 11.8 57 5.0 SSW 11 22 6 12 1009.4 1008.2 0.0
21/09:00pm 21.1 19.7 12.3 57 5.0 SW 11 22 6 12 1009.2 1008.0 0.0
21/08:30pm 21.5 19.8 12.6 57 5.1 SW 13 20 7 11 1008.8 1007.6 0.0
21/08:00pm 22.2 20.7 13.0 56 5.3 WSW 13 26 7 14 1008.5 1007.3 0.0
21/07:30pm 23.2 21.3 13.1 53 5.9 WSW 15 26 8 14 1008.2 1007.0 0.0
21/07:00pm 25.0 22.4 11.9 44 7.6 WSW 17 28 9 15 1008.0 1006.8 0.0
21/06:30pm 26.4 23.5 10.9 38 8.8 WSW 17 28 9 15 1007.7 1006.6 0.0
21/06:00pm 27.8 23.9 9.6 32 10.3 SW 20 35 11 19 1007.5 1006.4 0.0
21/05:30pm 28.1 23.6 9.9 32 10.3 SW 24 37 13 20 1007.1 1006.0 0.0
21/05:00pm 29.8 25.7 8.8 27 11.8 SW 20 32 11 17 1006.9 1005.8 0.0
21/04:30pm 29.6 26.0 9.7 29 11.3 WSW 19 33 10 18 1006.9 1005.8 0.0
21/04:00pm 31.2 27.1 8.8 25 12.7 WSW 20 32 11 17 1007.0 1005.9 0.0
21/03:30pm 31.3 28.4 9.5 26 12.4 WSW 15 30 8 16 1006.9 1005.8 0.0
21/03:00pm 32.0 28.1 9.5 25 12.9 WSW 20 33 11 18 1007.1 1006.0 0.0
21/02:30pm 33.0 29.3 7.8 21 14.1 W 17 28 9 15 1006.9 1005.8 0.0
21/02:00pm 33.4 30.9 5.0 17 15.3 WNW 7 19 4 10 1007.0 1005.9 0.0
21/01:30pm 32.7 29.5 5.3 18 14.7 S 11 17 6 9 1007.4 1006.3 0.0
21/01:00pm 31.6 28.7 4.4 18 14.3 SW 9 17 5 9 1008.0 1006.8 0.0
21/12:30pm 30.9 28.1 3.0 17 14.3 NW 7 13 4 7 1008.3 1007.1 0.0
21/12:00pm 30.4 27.9 1.8 16 14.3 ESE 4 11 2 6 1008.7 1007.5 0.0
21/11:30am 29.3 26.8 4.7 21 12.8 S 7 11 4 6 1009.0 1007.8 0.0
21/11:00am 28.5 27.1 5.4 23 12.2 NNE 2 9 1 5 1009.3 1008.1 0.0
21/10:30am 28.0 27.0 8.8 30 10.7 SSE 4 9 2 5 1009.6 1008.4 0.0
21/10:00am 26.5 26.1 11.0 38 8.9 S 4 11 2 6 1009.9 1008.7 0.0
21/09:30am 24.2 24.3 11.5 45 7.2 SSE 2 7 1 4 1010.3 1009.2 0.0
21/09:00am 22.1 21.4 11.5 51 6.0 SSE 6 7 3 4 1010.6 1009.5 0.0
21/08:30am 20.5 19.9 11.7 57 4.9 SE 6 7 3 4 1010.8 1009.7 0.0
21/08:00am 18.7 17.8 11.3 62 4.1 ESE 7 11 4 6 1010.8 1009.7 0.0
21/07:30am 16.9 15.4 10.7 67 3.4 SSE 9 13 5 7 1010.7 1009.6 0.0
21/07:00am 15.3 13.3 10.3 72 2.7 SE 11 15 6 8 1010.5 1009.4 0.0
21/06:30am 13.2 10.8 10.0 81 1.7 SE 13 17 7 9 1010.4 1009.3 0.0
21/06:00am 12.8 9.9 9.8 82 1.6 SE 15 17 8 9 1010.3 1009.2 0.0
21/05:30am 12.9 10.3 9.5 80 1.8 SE 13 17 7 9 1010.1 1009.0 0.0
21/05:00am 13.5 10.6 9.7 78 2.0 SE 15 19 8 10 1010.0 1008.8 0.0
21/04:30am 14.0 11.1 9.8 76 2.2 SE 15 19 8 10 1009.7 1008.5 0.0
21/04:00am 14.4 11.2 9.8 74 2.4 ESE 17 24 9 13 1009.6 1008.4 0.0
21/03:30am 15.0 12.2 10.0 72 2.6 ESE 15 19 8 10 1009.3 1008.1 0.0
21/03:00am 15.6 12.5 10.2 70 2.9 SE 17 24 9 13 1009.6 1008.4 0.0
21/02:30am 16.1 12.7 10.6 70 3.0 SE 19 24 10 13 1009.7 1008.5 0.0
21/02:00am 16.1 12.9 11.3 73 2.6 SE 19 22 10 12 1010.1 1009.0 0.0
21/01:30am 16.2 13.2 11.8 75 2.4 SE 19 26 10 14 1010.2 1009.1 0.0
21/01:00am 16.7 13.7 12.0 74 2.6 SE 19 26 10 14 1010.3 1009.2 0.0
21/12:30am 17.2 14.4 12.7 75 2.5 SE 19 26 10 14 1010.4 1009.3 0.0
21/12:00am 16.8 14.1 12.9 78 2.2 SSE 19 26 10 14 1010.7 1009.6 0.0
 
Date/Time
WST
Temp
°C
App
Temp
°C
Dew
Point
°C
Rel
Hum
%
Delta-T
°C
Wind Press
QNH
hPa
Press
MSL
hPa
Rain since
9am
mm
Dir  Spd
km/h
Gust
km/h
Spd
kts
Gust
kts
20/11:30pm 16.3 13.9 12.8 80 2.0 SSE 17 24 9 13 1010.8 1009.7 0.0
20/11:00pm 16.1 13.7 12.8 81 1.9 S 17 26 9 14 1010.9 1009.8 0.0
20/10:30pm 16.3 14.7 12.8 80 2.0 S 13 17 7 9 1011.1 1010.0 0.0
20/10:00pm 16.9 15.4 13.0 78 2.2 SSW 13 19 7 10 1011.1 1010.0 0.0
20/09:30pm 17.6 16.7 13.7 78 2.2 SW 11 15 6 8 1011.0 1009.9 0.0
20/09:00pm 17.8 16.8 13.3 75 2.6 W 11 13 6 7 1010.9 1009.8 0.0
20/08:30pm 18.6 17.9 13.2 71 3.1 W 9 13 5 7 1010.9 1009.8 0.0
20/08:00pm 19.4 18.6 12.9 66 3.7 W 9 13 5 7 1010.7 1009.6 0.0
20/07:30pm 20.2 19.3 12.7 62 4.3 WSW 9 19 5 10 1010.6 1009.5 0.0
20/07:00pm 21.1 19.0 12.3 57 5.0 WSW 15 26 8 14 1010.3 1009.2 0.0
20/06:30pm 22.5 20.1 12.7 54 5.7 WSW 17 28 9 15 1010.2 1009.1 0.0
20/06:00pm 23.9 21.5 12.5 49 6.6 WSW 17 30 9 16 1009.9 1008.7 0.0
20/05:30pm 24.4 21.5 12.4 47 7.0 WSW 19 32 10 17 1009.8 1008.6 0.0
20/05:00pm 25.6 22.6 12.1 43 7.8 WSW 19 32 10 17 1009.5 1008.3 0.0
20/04:30pm 26.3 23.0 10.9 38 8.8 WSW 19 32 10 17 1009.7 1008.5 0.0
20/04:00pm 27.7 24.5 10.0 33 10.0 WNW 17 32 9 17 1009.7 1008.5 0.0
20/03:30pm 29.4 26.8 4.1 20 13.1 NNE 7 13 4 7 1009.8 1008.6 0.0
20/03:00pm 28.6 25.6 4.2 21 12.6 ESE 9 17 5 9 1010.1 1009.0 0.0
20/02:30pm 28.1 24.4 4.4 22 12.2 SSE 13 19 7 10 1010.5 1009.4 0.0

Other Formats:

Comma delimited format used in spreadsheet applications
http://www.bom.gov.au/fwo/IDW60801/IDW60801.94620.axf

JavaScript Object Notation format (JSON) in row-major order
http://www.bom.gov.au/fwo/IDW60801/IDW60801.94620.json